Time;durP1;ratioP1;P1;durP2;ratioP2;P2;SDS_P1;SDS_P2;PMS_P1;PMS_P2;Temp;Humidity;BMP_temperature;BMP_pressure;BME280_temperature;BME280_humidity;BME280_pressure;Samples;Min_cycle;Max_cycle;Signal;HPM_P1;HPM_P2
2023/10/03 00:00:15;;;;;;;21.33;9.37;;;14.10;97.50;;;;;;5008625;28;20504;-65
2023/10/03 00:02:43;;;;;;;29.77;8.43;;;14.20;97.60;;;;;;5025020;28;20982;-65
2023/10/03 00:05:11;;;;;;;17.30;8.00;;;14.20;97.80;;;;;;5003780;28;21640;-65
2023/10/03 00:07:37;;;;;;;28.13;9.43;;;14.20;97.80;;;;;;5008526;28;20488;-67
2023/10/03 00:10:05;;;;;;;17.70;7.50;;;14.20;98.00;;;;;;5004307;28;20559;-66
2023/10/03 00:12:32;;;;;;;14.53;6.50;;;14.30;97.90;;;;;;5003811;28;20621;-66
2023/10/03 00:14:59;;;;;;;16.33;7.83;;;14.30;98.40;;;;;;5008822;28;20490;-66
2023/10/03 00:17:26;;;;;;;23.53;8.63;;;14.50;98.60;;;;;;4990479;28;20489;-66
2023/10/03 00:19:55;;;;;;;18.33;8.23;;;14.50;98.90;;;;;;5007898;28;20496;-66
2023/10/03 00:22:22;;;;;;;17.33;8.63;;;14.60;98.50;;;;;;5008736;28;20534;-65
2023/10/03 00:24:48;;;;;;;23.97;8.93;;;14.80;98.90;;;;;;5010493;28;20491;-66
2023/10/03 00:27:16;;;;;;;17.20;7.17;;;14.90;98.80;;;;;;5007284;28;20476;-65
2023/10/03 00:29:43;;;;;;;22.53;8.87;;;15.00;99.00;;;;;;5012158;28;20480;-65
2023/10/03 00:32:10;;;;;;;14.73;8.03;;;15.10;99.20;;;;;;5023826;28;20949;-67
2023/10/03 00:34:40;;;;;;;15.97;8.67;;;15.20;99.80;;;;;;5011646;28;21096;-68
2023/10/03 00:37:08;;;;;;;20.57;8.90;;;15.30;99.00;;;;;;5003009;28;20515;-69
2023/10/03 00:39:35;;;;;;;20.30;7.83;;;15.50;99.10;;;;;;5010408;28;20488;-68
2023/10/03 00:42:03;;;;;;;12.20;7.57;;;15.50;98.90;;;;;;4998764;28;20615;-69
2023/10/03 00:44:30;;;;;;;13.70;8.17;;;15.50;98.40;;;;;;5024601;28;21062;-68
2023/10/03 00:46:58;;;;;;;16.70;8.10;;;;;;;;;;5014902;28;21061;-68
2023/10/03 00:49:28;;;;;;;16.13;6.27;;;15.70;99.20;;;;;;5014198;28;20492;-69
2023/10/03 00:51:55;;;;;;;20.97;7.70;;;15.90;99.00;;;;;;5012270;28;20480;-69
2023/10/03 00:54:24;;;;;;;13.73;6.80;;;16.00;98.80;;;;;;5012099;28;21006;-66
2023/10/03 00:56:51;;;;;;;7.50;5.30;;;;;;;;;;5011759;28;20485;-67
2023/10/03 00:59:18;;;;;;;11.70;6.40;;;16.40;99.10;;;;;;5006946;28;20484;-67
2023/10/03 01:01:46;;;;;;;10.60;7.30;;;16.70;98.70;;;;;;5015879;28;20472;-67
2023/10/03 01:04:18;;;;;;;12.80;5.83;;;16.80;98.40;;;;;;5014406;28;20487;-67
2023/10/03 01:06:46;;;;;;;17.70;8.20;;;17.00;98.30;;;;;;5012431;28;20986;-68
2023/10/03 01:09:16;;;;;;;9.50;6.50;;;17.20;98.00;;;;;;5012394;28;20571;-66
2023/10/03 01:11:47;;;;;;;11.10;6.17;;;17.30;97.60;;;;;;5010035;28;20537;-67
2023/10/03 01:14:15;;;;;;;7.03;5.23;;;17.50;97.50;;;;;;5012370;28;20496;-67
2023/10/03 01:16:44;;;;;;;12.13;6.57;;;17.50;97.40;;;;;;5008117;28;20477;-67
2023/10/03 01:19:14;;;;;;;15.23;6.50;;;17.80;97.20;;;;;;5013497;28;20479;-68
2023/10/03 01:21:41;;;;;;;8.67;5.77;;;17.80;97.00;;;;;;5014623;28;20481;-68
2023/10/03 01:24:11;;;;;;;9.17;5.43;;;17.90;96.90;;;;;;5008818;28;20569;-68
2023/10/03 01:26:38;;;;;;;14.37;5.10;;;18.00;96.60;;;;;;5018113;28;21643;-66
2023/10/03 01:29:05;;;;;;;12.17;6.60;;;18.10;96.60;;;;;;5002557;28;20510;-67
2023/10/03 01:31:32;;;;;;;27.87;6.93;;;;;;;;;;5022505;28;20468;-67
2023/10/03 01:34:01;;;;;;;19.93;6.43;;;18.20;96.40;;;;;;5008400;28;20954;-67
2023/10/03 01:36:29;;;;;;;9.67;5.77;;;18.30;96.30;;;;;;5009078;28;20512;-68
2023/10/03 01:38:56;;;;;;;18.43;6.30;;;18.30;96.10;;;;;;5015796;28;20853;-67
2023/10/03 01:41:24;;;;;;;6.90;4.77;;;18.40;96.00;;;;;;5001176;28;21046;-68
2023/10/03 01:43:51;;;;;;;10.03;5.67;;;18.50;96.00;;;;;;5005861;28;20495;-66
2023/10/03 01:46:18;;;;;;;13.00;6.40;;;18.60;95.80;;;;;;5007871;28;20480;-67
2023/10/03 01:48:45;;;;;;;8.27;5.20;;;18.80;95.60;;;;;;5006590;28;20603;-67
2023/10/03 01:51:11;;;;;;;6.60;4.80;;;18.80;95.60;;;;;;5004461;28;20913;-67
2023/10/03 01:53:39;;;;;;;12.03;5.97;;;19.00;95.40;;;;;;5010064;28;21057;-67
2023/10/03 01:57:03;;;;;;;15.33;6.50;;;19.10;95.30;;;;;;5020732;28;20477;-68
2023/10/03 02:00:05;;;;;;;13.33;6.03;;;19.20;95.30;;;;;;5016128;28;20469;-67
2023/10/03 02:02:32;;;;;;;10.33;6.53;;;19.30;95.30;;;;;;5005969;28;20494;-67
2023/10/03 02:04:58;;;;;;;7.10;5.50;;;19.30;95.30;;;;;;5015085;28;20491;-67
2023/10/03 02:07:27;;;;;;;12.47;5.07;;;19.50;95.00;;;;;;5018151;28;20948;-67
2023/10/03 02:09:55;;;;;;;10.43;5.20;;;19.50;95.10;;;;;;5010886;28;21073;-68
2023/10/03 02:12:22;;;;;;;7.20;5.60;;;19.50;94.90;;;;;;5005987;28;20494;-66
2023/10/03 02:14:49;;;;;;;10.40;6.33;;;19.60;94.70;;;;;;5023525;28;20481;-67
2023/10/03 02:17:17;;;;;;;10.40;5.40;;;19.70;94.70;;;;;;5012237;28;20866;-67
2023/10/03 02:19:44;;;;;;;20.83;5.53;;;19.70;94.60;;;;;;5016763;28;20550;-67
2023/10/03 02:22:12;;;;;;;7.97;5.37;;;19.80;94.50;;;;;;5012659;28;20485;-67
2023/10/03 02:24:39;;;;;;;7.47;5.40;;;19.80;94.50;;;;;;5014630;28;20534;-67
2023/10/03 02:27:07;;;;;;;12.63;5.60;;;19.80;94.50;;;;;;5016668;28;20484;-67
2023/10/03 02:29:34;;;;;;;6.13;4.77;;;19.90;94.50;;;;;;5008937;28;20467;-66
2023/10/03 02:32:02;;;;;;;7.50;5.50;;;19.90;94.40;;;;;;5015436;28;20476;-67
2023/10/03 02:34:33;;;;;;;10.63;4.60;;;19.90;94.50;;;;;;5015000;28;20473;-67
2023/10/03 02:37:00;;;;;;;7.83;5.93;;;19.90;94.30;;;;;;4995300;28;20503;-67
2023/10/03 02:39:35;;;;;;;9.63;4.63;;;20.00;94.50;;;;;;5019415;28;20484;-67
2023/10/03 02:42:09;;;;;;;7.23;5.60;;;20.00;94.50;;;;;;5018812;28;20874;-67
2023/10/03 02:44:36;;;;;;;7.70;5.50;;;20.00;94.30;;;;;;5012411;28;20563;-67
2023/10/03 02:47:04;;;;;;;13.53;5.77;;;19.90;94.30;;;;;;5020973;28;20477;-66
2023/10/03 02:49:32;;;;;;;18.63;7.13;;;20.00;94.20;;;;;;5021551;28;20994;-68
2023/10/03 02:52:00;;;;;;;10.03;5.60;;;20.00;94.30;;;;;;5020968;28;20517;-68
2023/10/03 02:54:27;;;;;;;13.93;6.27;;;20.10;94.30;;;;;;5013758;28;20572;-66
2023/10/03 02:56:54;;;;;;;7.33;4.80;;;20.10;94.40;;;;;;5017422;28;20454;-67
2023/10/03 02:59:21;;;;;;;10.63;5.77;;;20.20;94.40;;;;;;5019042;28;21018;-67
2023/10/03 03:01:52;;;;;;;7.20;5.20;;;20.10;94.30;;;;;;5017219;28;20477;-67
2023/10/03 03:04:21;;;;;;;13.60;5.67;;;20.20;94.50;;;;;;5012600;28;20502;-67
2023/10/03 03:06:51;;;;;;;8.07;6.03;;;20.10;94.40;;;;;;5023980;28;20480;-67
2023/10/03 03:09:23;;;;;;;14.73;6.27;;;;;;;;;;5014525;28;20511;-67
2023/10/03 03:11:50;;;;;;;11.20;6.20;;;20.10;94.40;;;;;;5020501;28;20501;-66
2023/10/03 03:14:18;;;;;;;8.93;5.63;;;20.10;94.60;;;;;;5019455;28;20505;-66
2023/10/03 03:16:48;;;;;;;8.67;5.60;;;20.20;94.40;;;;;;5020963;28;20523;-66
2023/10/03 03:19:15;;;;;;;13.63;6.10;;;20.20;94.50;;;;;;5021260;28;20961;-66
2023/10/03 03:21:44;;;;;;;27.07;5.63;;;20.30;94.40;;;;;;5018343;28;20500;-67
2023/10/03 03:24:15;;;;;;;10.30;6.17;;;20.30;94.40;;;;;;5011105;28;20480;-69
2023/10/03 03:26:47;;;;;;;7.67;4.73;;;20.30;94.40;;;;;;5018388;28;20532;-68
2023/10/03 03:29:20;;;;;;;17.20;6.30;;;20.30;94.50;;;;;;5015854;28;20484;-69
2023/10/03 03:31:48;;;;;;;10.87;5.43;;;20.30;94.40;;;;;;5019648;28;20534;-68
2023/10/03 03:34:15;;;;;;;8.33;5.87;;;20.30;94.50;;;;;;5017346;28;20481;-69
2023/10/03 03:36:46;;;;;;;10.13;5.33;;;20.30;94.50;;;;;;5017354;28;20488;-69
2023/10/03 03:39:16;;;;;;;13.90;5.10;;;20.30;94.50;;;;;;5000321;28;20936;-69
2023/10/03 03:41:43;;;;;;;11.50;5.80;;;20.30;94.50;;;;;;5014890;28;20481;-69
2023/10/03 03:44:12;;;;;;;8.93;5.70;;;20.20;94.50;;;;;;5022855;28;20499;-69
2023/10/03 03:46:40;;;;;;;12.50;5.90;;;20.00;94.60;;;;;;5022987;28;20477;-70
2023/10/03 03:49:07;;;;;;;39.13;7.30;;;20.00;94.70;;;;;;5013038;28;20495;-69
2023/10/03 03:51:34;;;;;;;7.33;5.53;;;19.90;94.70;;;;;;5026309;28;20484;-68
2023/10/03 03:54:03;;;;;;;12.63;5.50;;;19.90;94.80;;;;;;5018824;28;20497;-68
2023/10/03 03:56:33;;;;;;;11.00;5.40;;;19.90;94.80;;;;;;5019790;28;20469;-71
2023/10/03 03:58:59;;;;;;;13.20;6.13;;;19.90;94.80;;;;;;5019064;28;20480;-68
2023/10/03 04:01:26;;;;;;;9.47;5.27;;;19.90;94.70;;;;;;5020326;28;20472;-69
2023/10/03 04:03:55;;;;;;;16.40;5.53;;;20.00;94.70;;;;;;5022696;28;20997;-68
2023/10/03 04:06:23;;;;;;;6.10;4.33;;;20.00;94.70;;;;;;5019670;28;20556;-69
2023/10/03 04:08:50;;;;;;;8.67;5.27;;;;;;;;;;5015933;28;21229;-69
2023/10/03 04:11:17;;;;;;;11.37;6.43;;;20.00;94.70;;;;;;5018148;28;20492;-69
2023/10/03 04:13:53;;;;;;;8.40;5.10;;;19.90;94.70;;;;;;5020828;28;20484;-69
2023/10/03 04:16:21;;;;;;;7.93;6.53;;;20.00;94.80;;;;;;5017107;28;20468;-70
2023/10/03 04:18:49;;;;;;;15.83;6.17;;;19.90;94.90;;;;;;5018706;28;20492;-69
2023/10/03 04:21:16;;;;;;;7.53;5.63;;;19.90;94.90;;;;;;5017813;28;20593;-69
2023/10/03 04:23:44;;;;;;;17.40;5.90;;;19.90;94.90;;;;;;5018879;28;21273;-70
2023/10/03 04:26:11;;;;;;;8.73;5.13;;;19.90;94.90;;;;;;5018807;28;20481;-69
2023/10/03 04:28:38;;;;;;;10.70;6.17;;;19.90;94.90;;;;;;5015457;28;20487;-69
2023/10/03 04:31:07;;;;;;;6.07;4.80;;;19.90;94.80;;;;;;5008167;28;20538;-69
2023/10/03 04:33:34;;;;;;;11.47;5.10;;;19.80;94.80;;;;;;5032972;28;20485;-68
2023/10/03 04:36:04;;;;;;;11.67;5.60;;;19.90;94.90;;;;;;5016695;28;20484;-67
2023/10/03 04:38:31;;;;;;;12.57;5.67;;;19.90;94.90;;;;;;5007126;28;20983;-66
2023/10/03 04:40:58;;;;;;;8.37;5.03;;;19.90;94.90;;;;;;5024312;28;20479;-67
2023/10/03 04:43:29;;;;;;;8.60;6.47;;;19.80;95.00;;;;;;5019040;28;20468;-67
2023/10/03 04:45:56;;;;;;;7.40;5.37;;;19.80;95.10;;;;;;5016319;28;21068;-67
2023/10/03 04:48:24;;;;;;;7.40;5.07;;;19.90;95.10;;;;;;5018645;28;20576;-68
2023/10/03 04:50:51;;;;;;;8.03;5.73;;;19.90;95.20;;;;;;5017903;28;20481;-69
2023/10/03 04:53:18;;;;;;;8.87;5.53;;;19.90;95.00;;;;;;5015642;28;20493;-69
2023/10/03 04:55:48;;;;;;;7.50;4.03;;;20.00;95.00;;;;;;5018001;28;21004;-71
2023/10/03 04:58:14;;;;;;;12.17;4.83;;;20.00;94.90;;;;;;5014999;28;20476;-68
2023/10/03 05:00:42;;;;;;;9.40;5.30;;;20.00;95.00;;;;;;5007721;28;20479;-67
2023/10/03 05:03:09;;;;;;;7.20;5.00;;;19.90;95.00;;;;;;5015034;28;20480;-68
2023/10/03 05:05:37;;;;;;;13.20;4.70;;;20.00;94.90;;;;;;5010303;28;20487;-68
2023/10/03 05:08:05;;;;;;;8.80;5.13;;;20.00;94.90;;;;;;5026095;28;20483;-67
2023/10/03 05:10:33;;;;;;;9.20;5.80;;;20.00;94.70;;;;;;5018058;28;20484;-69
2023/10/03 05:13:00;;;;;;;8.50;5.63;;;20.10;94.90;;;;;;5016564;28;20481;-68
2023/10/03 05:15:27;;;;;;;8.53;4.93;;;20.00;94.70;;;;;;5017731;28;20488;-69
2023/10/03 05:17:55;;;;;;;7.07;4.97;;;20.10;94.80;;;;;;5017143;28;20484;-69
2023/10/03 05:20:34;;;;;;;8.53;5.30;;;20.00;94.70;;;;;;5015053;28;20481;-69
2023/10/03 05:23:03;;;;;;;8.10;4.30;;;20.10;94.70;;;;;;5017423;28;20666;-68
2023/10/03 05:25:30;;;;;;;17.50;6.13;;;20.10;94.80;;;;;;5011677;28;20469;-69
2023/10/03 05:27:57;;;;;;;8.73;5.37;;;20.10;94.70;;;;;;5024078;28;20484;-71
2023/10/03 05:30:25;;;;;;;8.47;5.30;;;20.00;94.70;;;;;;5017380;28;20497;-69
2023/10/03 05:32:52;;;;;;;9.80;5.67;;;20.10;94.70;;;;;;5019405;28;20511;-69
2023/10/03 05:35:19;;;;;;;15.70;5.13;;;20.00;94.70;;;;;;5021117;28;20484;-69
2023/10/03 05:37:45;;;;;;;8.50;5.23;;;20.10;94.80;;;;;;5021249;28;20492;-69
2023/10/03 05:40:18;;;;;;;13.33;7.07;;;20.00;94.80;;;;;;5021642;28;20488;-69
2023/10/03 05:42:47;;;;;;;9.80;5.63;;;20.00;94.90;;;;;;5021897;28;20495;-69
2023/10/03 05:45:15;;;;;;;8.30;5.10;;;19.90;94.80;;;;;;5021365;28;20854;-67
2023/10/03 05:47:44;;;;;;;12.77;5.77;;;20.00;94.80;;;;;;5021047;28;21215;-66
2023/10/03 05:50:10;;;;;;;13.23;7.10;;;19.90;94.90;;;;;;5021014;28;21037;-66
2023/10/03 05:52:37;;;;;;;7.87;5.10;;;20.00;94.90;;;;;;5022309;28;20481;-66
2023/10/03 05:55:04;;;;;;;14.33;5.90;;;20.00;94.90;;;;;;5022268;28;20925;-65
2023/10/03 05:57:33;;;;;;;11.50;6.57;;;19.90;94.90;;;;;;5021085;28;20564;-66
2023/10/03 06:00:00;;;;;;;24.50;7.07;;;;;;;;;;5021364;28;20485;-67
2023/10/03 06:02:27;;;;;;;8.40;5.10;;;20.00;95.00;;;;;;5021874;28;20625;-66
2023/10/03 06:04:54;;;;;;;15.50;6.23;;;19.90;95.00;;;;;;5020967;28;20487;-67
2023/10/03 06:07:23;;;;;;;12.67;5.57;;;19.90;95.00;;;;;;5021519;28;20972;-66
2023/10/03 06:09:50;;;;;;;6.80;4.97;;;19.90;95.00;;;;;;5021544;28;20511;-67
2023/10/03 06:12:17;;;;;;;6.93;5.00;;;20.00;95.10;;;;;;5017832;28;20829;-66
2023/10/03 06:14:46;;;;;;;12.13;5.70;;;20.00;95.10;;;;;;5021816;28;20998;-66
2023/10/03 06:17:12;;;;;;;8.30;4.87;;;20.10;95.20;;;;;;5020804;28;20486;-66
2023/10/03 06:19:39;;;;;;;8.47;5.00;;;20.00;95.10;;;;;;5022175;28;20500;-66
2023/10/03 06:22:08;;;;;;;10.77;4.90;;;20.10;95.20;;;;;;5020157;28;21025;-66
2023/10/03 06:24:34;;;;;;;7.80;5.17;;;20.10;95.10;;;;;;5020853;28;20488;-67
2023/10/03 06:27:03;;;;;;;10.13;7.10;;;20.10;95.20;;;;;;5010195;28;20484;-67
2023/10/03 06:29:30;;;;;;;11.97;5.23;;;20.20;95.40;;;;;;5032480;28;20653;-65
2023/10/03 06:31:58;;;;;;;8.87;6.23;;;20.20;95.30;;;;;;5019956;28;20893;-67
2023/10/03 06:34:25;;;;;;;25.93;6.20;;;20.30;95.40;;;;;;5018245;28;20499;-66
2023/10/03 06:36:52;;;;;;;6.73;4.93;;;20.40;95.30;;;;;;5020390;28;20556;-66
2023/10/03 06:39:19;;;;;;;8.37;5.00;;;21.00;95.00;;;;;;5018684;28;20568;-65
2023/10/03 06:41:47;;;;;;;12.83;4.83;;;21.80;94.50;;;;;;5018799;28;20484;-65
2023/10/03 06:44:14;;;;;;;6.43;4.53;;;22.30;93.70;;;;;;5006527;28;21014;-66
2023/10/03 06:46:42;;;;;;;9.03;6.43;;;22.50;93.20;;;;;;5019813;28;20480;-66
2023/10/03 06:49:11;;;;;;;17.67;6.37;;;23.10;92.80;;;;;;5018081;28;20480;-67
2023/10/03 06:51:37;;;;;;;7.60;5.27;;;23.50;92.40;;;;;;5017758;28;20508;-66
2023/10/03 06:54:04;;;;;;;16.47;5.00;;;23.60;91.90;;;;;;5020866;28;20508;-67
2023/10/03 06:56:32;;;;;;;15.97;5.53;;;23.90;91.80;;;;;;5019541;28;20481;-67
2023/10/03 06:58:59;;;;;;;9.37;6.00;;;24.00;91.50;;;;;;5015957;28;20891;-66
2023/10/03 07:01:27;;;;;;;8.60;6.03;;;24.10;91.60;;;;;;5017346;28;20488;-66
2023/10/03 07:03:54;;;;;;;18.30;7.20;;;23.90;91.20;;;;;;5020843;28;20473;-67
2023/10/03 07:06:22;;;;;;;6.43;4.67;;;23.70;91.20;;;;;;5020506;28;20448;-68
2023/10/03 07:08:49;;;;;;;27.50;6.20;;;;;;;;;;5020079;28;20491;-68
2023/10/03 07:11:16;;;;;;;11.47;7.30;;;22.70;92.30;;;;;;5019214;28;20515;-68
2023/10/03 07:13:43;;;;;;;13.93;5.83;;;22.30;92.80;;;;;;5019385;28;20512;-67
2023/10/03 07:16:11;;;;;;;14.53;5.77;;;22.20;93.10;;;;;;5016011;28;20548;-66
2023/10/03 07:18:38;;;;;;;6.80;4.50;;;22.40;93.00;;;;;;5020163;28;20504;-68
2023/10/03 07:21:05;;;;;;;7.47;4.70;;;22.30;93.20;;;;;;5019087;28;20480;-66
2023/10/03 07:23:33;;;;;;;17.33;6.23;;;22.40;93.10;;;;;;5016471;28;20477;-65
2023/10/03 07:25:59;;;;;;;8.20;5.03;;;22.30;93.40;;;;;;5018487;28;20473;-66
2023/10/03 07:28:26;;;;;;;9.90;6.37;;;22.70;93.20;;;;;;5020119;28;20501;-67
2023/10/03 07:30:53;;;;;;;14.03;5.90;;;23.20;92.60;;;;;;5017249;28;20475;-65
2023/10/03 07:33:22;;;;;;;6.63;5.93;;;23.10;92.30;;;;;;5009080;28;20492;-69
2023/10/03 07:35:49;;;;;;;15.07;5.40;;;23.10;92.50;;;;;;5020769;28;20929;-65
2023/10/03 07:38:16;;;;;;;13.20;7.37;;;22.80;92.80;;;;;;5020134;28;20477;-66
2023/10/03 07:40:44;;;;;;;7.97;5.23;;;22.70;93.30;;;;;;5020270;28;20702;-66
2023/10/03 07:43:12;;;;;;;17.70;7.10;;;23.10;92.90;;;;;;5009070;28;20488;-66
2023/10/03 07:45:40;;;;;;;8.33;5.30;;;23.10;92.70;;;;;;5031523;28;21063;-65
2023/10/03 07:48:09;;;;;;;10.47;6.70;;;23.20;92.60;;;;;;5018460;28;20477;-64
2023/10/03 07:50:37;;;;;;;12.60;5.07;;;22.90;92.60;;;;;;5019809;28;20476;-65
2023/10/03 07:53:05;;;;;;;6.57;4.80;;;22.70;92.90;;;;;;5017361;28;20555;-63
2023/10/03 07:55:35;;;;;;;8.33;4.43;;;22.60;93.20;;;;;;5012254;28;21248;-63
2023/10/03 07:58:03;;;;;;;18.17;7.20;;;22.40;93.40;;;;;;5020628;28;21016;-66
2023/10/03 08:00:30;;;;;;;18.60;6.37;;;22.20;93.80;;;;;;5017018;28;20941;-63
2023/10/03 08:02:58;;;;;;;9.43;6.10;;;22.10;93.70;;;;;;5018415;28;21245;-66
2023/10/03 08:05:27;;;;;;;9.33;4.27;;;22.20;93.80;;;;;;5017405;28;20476;-65
2023/10/03 08:07:56;;;;;;;9.23;6.10;;;22.20;93.80;;;;;;5016002;28;20855;-65
2023/10/03 08:10:22;;;;;;;16.53;6.60;;;22.20;93.80;;;;;;5010414;28;20495;-64
2023/10/03 08:12:52;;;;;;;7.53;4.10;;;22.40;94.00;;;;;;5015919;28;20481;-63
2023/10/03 08:15:22;;;;;;;7.10;4.67;;;22.40;93.80;;;;;;5017630;28;21053;-66
2023/10/03 08:17:53;;;;;;;21.83;7.30;;;22.20;94.00;;;;;;5017108;28;21080;-65
2023/10/03 08:20:21;;;;;;;14.80;5.60;;;22.30;94.50;;;;;;5016634;28;20950;-64
2023/10/03 08:22:51;;;;;;;8.93;6.90;;;22.10;94.10;;;;;;5019328;28;20480;-64
2023/10/03 08:25:20;;;;;;;9.93;5.90;;;22.00;94.30;;;;;;5017465;28;20477;-66
2023/10/03 08:27:47;;;;;;;12.30;6.00;;;22.00;94.40;;;;;;5018697;28;21652;-66
2023/10/03 08:30:25;;;;;;;11.80;6.43;;;22.10;94.80;;;;;;5015272;28;20571;-66
2023/10/03 08:32:55;;;;;;;12.77;6.07;;;22.00;94.60;;;;;;5030650;28;20479;-64
2023/10/03 08:35:34;;;;;;;8.20;6.20;;;22.30;94.90;;;;;;5018712;28;21468;-66
2023/10/03 08:38:04;;;;;;;10.20;5.87;;;22.40;94.70;;;;;;5007231;28;20893;-66
2023/10/03 08:40:32;;;;;;;7.10;4.67;;;22.30;94.50;;;;;;5017250;28;20851;-64
2023/10/03 08:43:02;;;;;;;10.27;6.97;;;22.30;94.20;;;;;;5016350;28;20487;-66
2023/10/03 08:45:34;;;;;;;14.13;5.80;;;22.60;95.30;;;;;;5018662;28;20468;-64
2023/10/03 08:48:06;;;;;;;9.43;5.57;;;22.70;94.80;;;;;;5007297;28;21035;-66
2023/10/03 08:50:39;;;;;;;8.13;5.27;;;22.80;94.70;;;;;;5004907;28;20861;-65
2023/10/03 08:53:17;;;;;;;14.47;6.73;;;22.70;94.30;;;;;;5006846;28;21127;-63
2023/10/03 08:55:45;;;;;;;6.83;4.87;;;22.70;94.40;;;;;;5013548;28;21718;-67
2023/10/03 08:58:15;;;;;;;6.90;5.17;;;22.70;94.40;;;;;;5017407;28;20480;-65
2023/10/03 09:00:47;;;;;;;9.40;5.70;;;22.40;94.80;;;;;;5011603;28;20497;-64
2023/10/03 09:03:17;;;;;;;15.97;8.10;;;22.40;94.50;;;;;;5007507;28;20491;-65
2023/10/03 09:05:45;;;;;;;52.23;7.07;;;22.60;94.80;;;;;;5029777;28;20542;-65
2023/10/03 09:08:14;;;;;;;10.77;6.77;;;22.70;94.50;;;;;;5016125;28;20492;-65
2023/10/03 09:10:52;;;;;;;14.63;6.87;;;22.60;94.50;;;;;;5017537;28;20808;-64
2023/10/03 09:13:24;;;;;;;18.27;6.27;;;22.70;94.70;;;;;;5018674;28;21162;-67
2023/10/03 09:15:59;;;;;;;17.40;7.73;;;22.60;94.90;;;;;;5018881;28;20480;-66
2023/10/03 09:18:30;;;;;;;9.33;5.97;;;22.60;94.80;;;;;;5018747;28;20468;-70
2023/10/03 09:21:00;;;;;;;6.70;4.83;;;22.70;94.60;;;;;;5014926;28;20469;-68
2023/10/03 09:23:38;;;;;;;8.33;5.20;;;22.70;94.90;;;;;;5015412;28;20910;-68
2023/10/03 09:26:06;;;;;;;8.03;5.90;;;22.70;94.60;;;;;;5017375;28;20542;-68
2023/10/03 09:28:36;;;;;;;9.60;5.67;;;22.90;94.70;;;;;;5005930;28;21001;-65
2023/10/03 09:31:08;;;;;;;9.30;5.10;;;22.90;94.70;;;;;;5018575;28;20994;-66
2023/10/03 09:33:39;;;;;;;25.47;8.17;;;22.80;94.80;;;;;;5005340;28;20484;-67
2023/10/03 09:36:06;;;;;;;7.10;4.47;;;23.10;95.20;;;;;;5014663;28;20476;-66
2023/10/03 09:38:42;;;;;;;9.27;6.67;;;23.00;95.20;;;;;;5006991;28;20535;-64
2023/10/03 09:41:17;;;;;;;16.63;5.83;;;23.20;94.70;;;;;;5018073;28;20476;-66
2023/10/03 09:43:49;;;;;;;13.83;7.20;;;23.30;94.90;;;;;;5017641;28;20562;-69
2023/10/03 09:46:23;;;;;;;11.30;6.63;;;23.50;94.80;;;;;;5014520;28;20485;-67
2023/10/03 09:48:54;;;;;;;10.33;5.37;;;23.30;94.30;;;;;;5018016;28;20481;-69
2023/10/03 09:51:36;;;;;;;8.30;3.93;;;23.40;94.50;;;;;;5017577;28;21065;-68
2023/10/03 09:54:08;;;;;;;17.20;5.23;;;23.40;94.30;;;;;;5017047;28;20583;-68
2023/10/03 09:56:40;;;;;;;5.20;3.53;;;23.50;94.30;;;;;;5022991;28;20498;-70
2023/10/03 09:59:08;;;;;;;9.27;6.40;;;23.50;94.00;;;;;;5014443;28;20487;-68
2023/10/03 10:01:36;;;;;;;9.63;5.23;;;23.60;94.20;;;;;;5013473;28;20461;-70
2023/10/03 10:04:07;;;;;;;11.37;5.03;;;23.90;94.00;;;;;;5016563;28;20592;-70
2023/10/03 10:06:47;;;;;;;12.83;7.93;;;23.90;93.90;;;;;;5016876;28;20485;-71
2023/10/03 10:09:27;;;;;;;17.70;7.70;;;23.60;94.50;;;;;;5014190;28;20468;-67
2023/10/03 10:12:14;;;;;;;12.37;6.17;;;23.70;94.40;;;;;;5017635;28;20458;-70
2023/10/03 10:15:14;;;;;;;18.50;5.00;;;23.60;93.80;;;;;;5005760;28;21026;-65
2023/10/03 10:17:44;;;;;;;9.13;5.40;;;23.60;94.30;;;;;;5001243;28;20477;-64
2023/10/03 10:20:17;;;;;;;9.33;6.07;;;23.50;94.40;;;;;;5002174;28;20498;-66
2023/10/03 10:23:12;;;;;;;13.60;7.63;;;23.20;94.40;;;;;;5019217;28;20473;-65
2023/10/03 10:25:42;;;;;;;11.23;5.70;;;23.20;94.80;;;;;;5015356;28;20458;-71
2023/10/03 10:28:10;;;;;;;12.10;6.90;;;;;;;;;;5018884;28;20508;-67
2023/10/03 10:30:39;;;;;;;14.13;6.70;;;23.00;95.10;;;;;;5018433;28;20476;-66
2023/10/03 10:33:25;;;;;;;8.33;5.17;;;23.00;94.80;;;;;;5016093;28;20668;-68
2023/10/03 10:35:55;;;;;;;11.77;5.10;;;23.00;94.90;;;;;;5025532;28;20488;-70
2023/10/03 10:38:42;;;;;;;11.83;6.47;;;23.00;94.90;;;;;;5018073;28;20576;-70
2023/10/03 10:41:22;;;;;;;6.80;5.13;;;23.00;94.80;;;;;;5019979;28;20458;-69
2023/10/03 10:44:13;;;;;;;8.67;4.97;;;23.10;94.60;;;;;;5011744;28;20487;-66
2023/10/03 10:46:44;;;;;;;9.03;6.23;;;23.20;94.70;;;;;;5016578;28;21161;-68
2023/10/03 10:49:30;;;;;;;19.33;5.40;;;;;;;;;;5019461;28;20483;-70
2023/10/03 10:52:00;;;;;;;10.57;7.03;;;23.00;95.10;;;;;;5011961;28;20507;-68
2023/10/03 10:54:27;;;;;;;8.17;4.80;;;23.10;95.30;;;;;;5016227;28;20569;-67
2023/10/03 10:56:59;;;;;;;15.10;5.30;;;23.10;95.00;;;;;;5019756;28;20845;-64
2023/10/03 10:59:27;;;;;;;10.73;5.77;;;23.20;95.30;;;;;;5018881;28;20504;-64
2023/10/03 11:01:54;;;;;;;11.90;5.80;;;23.20;95.00;;;;;;5020658;28;21024;-66
2023/10/03 11:04:24;;;;;;;15.40;5.17;;;23.00;94.90;;;;;;5008633;28;20481;-68
2023/10/03 11:06:52;;;;;;;9.30;4.73;;;23.10;95.20;;;;;;5024735;28;20455;-69
2023/10/03 11:09:20;;;;;;;7.77;4.37;;;23.20;95.00;;;;;;5034233;28;21079;-67
2023/10/03 11:11:49;;;;;;;27.67;6.47;;;23.10;95.00;;;;;;5021553;28;20878;-67
2023/10/03 11:14:25;;;;;;;8.90;5.43;;;22.90;94.90;;;;;;5019539;28;20479;-66
2023/10/03 11:16:52;;;;;;;12.83;5.07;;;22.90;95.30;;;;;;5026384;28;20567;-65
2023/10/03 11:19:19;;;;;;;7.70;4.97;;;22.90;95.30;;;;;;5020218;28;21031;-65
2023/10/03 11:21:46;;;;;;;9.83;5.13;;;23.00;95.40;;;;;;5021536;28;20488;-66
2023/10/03 11:24:17;;;;;;;18.80;5.50;;;22.90;95.30;;;;;;5019568;28;21237;-66
2023/10/03 11:26:50;;;;;;;16.43;4.83;;;22.90;95.30;;;;;;5019840;28;20456;-64
2023/10/03 11:29:35;;;;;;;7.07;3.87;;;23.10;95.70;;;;;;5003188;28;20581;-65
2023/10/03 11:32:02;;;;;;;11.47;3.30;;;23.10;95.60;;;;;;5019838;28;20481;-65
2023/10/03 11:34:31;;;;;;;6.10;5.13;;;23.10;95.30;;;;;;5019480;28;20492;-65
2023/10/03 11:36:58;;;;;;;7.00;3.77;;;23.10;94.90;;;;;;5020980;28;20549;-64
2023/10/03 11:39:26;;;;;;;18.53;4.80;;;23.40;95.20;;;;;;5008689;28;20554;-66
2023/10/03 11:41:54;;;;;;;5.80;3.03;;;23.90;95.20;;;;;;5034024;28;20465;-64
2023/10/03 11:44:21;;;;;;;17.27;3.93;;;23.80;94.70;;;;;;5018864;28;20476;-64
2023/10/03 11:46:49;;;;;;;9.17;4.97;;;24.00;94.70;;;;;;5020876;28;20481;-64
2023/10/03 11:49:17;;;;;;;5.43;2.90;;;24.00;94.80;;;;;;5016015;28;20480;-64
2023/10/03 11:51:44;;;;;;;13.50;4.53;;;24.30;94.30;;;;;;5020422;28;20507;-64
2023/10/03 11:54:11;;;;;;;10.53;2.87;;;24.20;93.70;;;;;;5019359;28;20992;-65
2023/10/03 11:56:42;;;;;;;4.30;2.73;;;23.80;93.50;;;;;;5021626;28;20488;-64
2023/10/03 11:59:14;;;;;;;6.33;3.43;;;23.90;94.10;;;;;;5018596;28;20489;-64
2023/10/03 12:01:42;;;;;;;4.40;3.10;;;23.70;94.00;;;;;;5016354;28;20477;-66
2023/10/03 12:04:09;;;;;;;7.80;4.40;;;23.70;94.00;;;;;;5018586;28;20483;-65
2023/10/03 12:06:37;;;;;;;7.50;4.60;;;23.50;94.10;;;;;;5019111;28;20480;-65
2023/10/03 12:09:08;;;;;;;4.33;3.50;;;23.30;94.30;;;;;;5019551;28;20455;-65
2023/10/03 12:11:36;;;;;;;45.87;5.73;;;23.20;94.30;;;;;;5033252;28;20485;-65
2023/10/03 12:14:02;;;;;;;4.60;3.10;;;23.00;94.60;;;;;;5017004;28;20817;-64
2023/10/03 12:16:31;;;;;;;14.23;5.60;;;23.20;94.70;;;;;;5019707;28;21005;-63
2023/10/03 12:18:57;;;;;;;17.40;3.80;;;23.10;94.40;;;;;;5019690;28;21307;-66
2023/10/03 12:21:25;;;;;;;5.90;3.00;;;23.00;94.40;;;;;;5017759;28;21173;-64
2023/10/03 12:23:51;;;;;;;9.87;4.37;;;23.00;94.80;;;;;;5020614;28;20481;-65
2023/10/03 12:26:18;;;;;;;6.10;3.57;;;23.00;94.60;;;;;;5022463;28;20477;-65
2023/10/03 12:28:45;;;;;;;18.13;4.03;;;23.00;94.70;;;;;;5020130;28;20481;-66
2023/10/03 12:31:11;;;;;;;4.87;3.30;;;23.00;94.80;;;;;;5019388;28;20492;-63
2023/10/03 12:33:40;;;;;;;3.80;3.20;;;23.00;94.50;;;;;;5019365;28;21001;-64
2023/10/03 12:36:07;;;;;;;8.43;2.80;;;23.10;94.70;;;;;;5019362;28;20477;-63
2023/10/03 12:38:33;;;;;;;3.53;2.50;;;23.20;94.30;;;;;;5019548;28;20493;-65
2023/10/03 12:41:01;;;;;;;5.20;3.83;;;23.20;94.60;;;;;;5018626;28;20481;-64
2023/10/03 12:43:27;;;;;;;5.10;2.83;;;23.20;94.70;;;;;;5016018;28;20504;-65
2023/10/03 12:45:54;;;;;;;15.83;4.50;;;;;;;;;;5019455;28;20479;-67
2023/10/03 12:48:21;;;;;;;15.80;3.40;;;23.20;94.70;;;;;;5018143;28;20564;-69
2023/10/03 12:50:53;;;;;;;27.30;4.40;;;23.20;95.00;;;;;;5007455;28;20477;-70
2023/10/03 12:53:19;;;;;;;9.30;3.17;;;23.20;95.00;;;;;;5007508;28;20557;-66
2023/10/03 12:55:46;;;;;;;8.47;3.60;;;23.20;95.00;;;;;;5017786;28;20488;-70